createdAt,value
2023-02-04T00:03:37.122Z,98399.19
2023-02-04T00:08:30.533Z,98387.53
2023-02-04T00:13:23.964Z,98390.19
2023-02-04T00:18:18.997Z,98374.00
2023-02-04T00:23:13.047Z,98353.91
2023-02-04T00:28:06.776Z,98359.09
2023-02-04T00:33:00.303Z,98348.34
2023-02-04T00:37:55.443Z,98359.78
2023-02-04T00:42:48.764Z,98371.97
2023-02-04T00:47:42.438Z,98384.69
2023-02-04T00:52:35.818Z,98382.28
2023-02-04T00:57:30.622Z,98369.97
2023-02-04T01:02:23.912Z,98363.94
2023-02-04T01:07:17.447Z,98353.50
2023-02-04T01:12:11.530Z,98377.09
2023-02-04T01:17:06.262Z,98374.38
2023-02-04T01:21:59.601Z,98375.69
2023-02-04T01:26:52.962Z,98372.47
2023-02-04T01:31:46.502Z,98364.56
2023-02-04T01:36:41.319Z,98371.75
2023-02-04T01:41:34.984Z,98364.66
2023-02-04T01:46:28.621Z,98368.63
2023-02-04T01:51:30.420Z,98357.38
2023-02-04T01:56:28.211Z,98375.41
2023-02-04T02:01:38.437Z,98361.91
2023-02-04T02:06:31.975Z,98360.63
2023-02-04T02:11:27.220Z,98365.97
2023-02-04T02:16:20.742Z,98372.63
2023-02-04T02:21:19.629Z,98351.34
2023-02-04T02:26:16.656Z,98357.69
2023-02-04T02:31:11.511Z,98357.75
2023-02-04T02:36:05.652Z,98362.00
2023-02-04T02:40:59.817Z,98361.94
2023-02-04T02:45:57.159Z,98370.44
2023-02-04T02:50:50.974Z,98375.84
2023-02-04T02:55:45.175Z,98373.50
2023-02-04T03:00:38.541Z,98373.72
2023-02-04T03:05:41.014Z,98364.06
2023-02-04T03:10:35.042Z,98367.19
2023-02-04T03:15:28.758Z,98368.84
2023-02-04T03:20:22.169Z,98380.47
2023-02-04T03:25:17.237Z,98375.75
2023-02-04T03:30:11.821Z,98374.28
2023-02-04T03:35:05.744Z,98370.03
2023-02-04T03:39:59.182Z,98367.59
2023-02-04T03:44:53.902Z,98366.06
2023-02-04T03:49:47.335Z,98397.84
2023-02-04T03:54:43.290Z,98388.63
2023-02-04T03:59:36.665Z,98391.09
2023-02-04T04:04:31.577Z,98400.41
2023-02-04T04:09:24.892Z,98393.63
2023-02-04T04:14:18.328Z,98382.84
2023-02-04T04:19:11.823Z,98394.09
2023-02-04T04:24:07.322Z,98395.19
2023-02-04T04:29:00.789Z,98396.38
2023-02-04T04:33:54.131Z,98394.09
2023-02-04T04:38:47.439Z,98407.22
2023-02-04T04:43:42.089Z,98399.19
2023-02-04T04:48:35.450Z,98408.66
2023-02-04T04:53:28.865Z,98410.31
2023-02-04T04:58:22.340Z,98408.91
2023-02-04T05:03:17.064Z,98402.47
2023-02-04T05:08:13.058Z,98406.00
2023-02-04T05:13:07.064Z,98396.69
2023-02-04T05:18:00.532Z,98412.50
2023-02-04T05:22:56.036Z,98422.59
2023-02-04T05:27:49.750Z,98424.44
2023-02-04T05:32:43.306Z,98422.69
2023-02-04T05:37:36.623Z,98426.78
2023-02-04T05:42:31.336Z,98430.56
2023-02-04T05:47:24.782Z,98430.78
2023-02-04T05:52:18.181Z,98430.06
2023-02-04T05:57:11.562Z,98437.25
2023-02-04T06:02:06.296Z,98429.56
2023-02-04T06:06:59.630Z,98433.53
2023-02-04T06:11:54.180Z,98440.56
2023-02-04T06:16:47.631Z,98450.34
2023-02-04T06:21:42.474Z,98450.28
2023-02-04T06:26:35.922Z,98453.78
2023-02-04T06:31:29.648Z,98454.69
2023-02-04T06:36:23.085Z,98444.50
2023-02-04T06:41:17.859Z,98438.22
2023-02-04T06:46:14.836Z,98456.91
2023-02-04T06:51:11.520Z,98474.00
2023-02-04T06:56:07.040Z,98465.75
2023-02-04T07:01:01.930Z,98476.94
2023-02-04T07:05:55.441Z,98476.25
2023-02-04T07:10:48.934Z,98478.22
2023-02-04T07:15:42.291Z,98472.56
2023-02-04T07:20:37.025Z,98480.41
2023-02-04T07:25:30.371Z,98487.34
2023-02-04T07:30:23.761Z,98491.88
2023-02-04T07:35:17.724Z,98490.94
2023-02-04T07:40:13.879Z,98493.69
2023-02-04T07:45:08.569Z,98496.44
2023-02-04T07:50:02.049Z,98495.00
2023-02-04T07:54:55.566Z,98504.72
2023-02-04T07:59:50.311Z,98500.38
2023-02-04T08:04:43.808Z,98508.19
2023-02-04T08:09:38.190Z,98527.19
2023-02-04T08:14:31.657Z,98521.97
2023-02-04T08:19:26.854Z,98515.78
2023-02-04T08:24:20.280Z,98527.81
2023-02-04T08:29:13.834Z,98527.84
2023-02-04T08:34:07.789Z,98529.59
2023-02-04T08:39:02.618Z,98528.59
2023-02-04T08:43:56.094Z,98527.91
2023-02-04T08:48:50.431Z,98537.53
2023-02-04T08:53:43.951Z,98532.25
2023-02-04T08:58:39.759Z,98531.22
2023-02-04T09:03:33.400Z,98530.41
2023-02-04T09:08:26.726Z,98535.81
2023-02-04T09:13:20.239Z,98547.63
2023-02-04T09:18:17.199Z,98542.94
2023-02-04T09:23:12.245Z,98543.53
2023-02-04T09:28:06.196Z,98545.34
2023-02-04T09:32:59.683Z,98557.53
2023-02-04T09:37:54.710Z,98561.56
2023-02-04T09:42:50.007Z,98560.56
2023-02-04T09:47:43.753Z,98553.53
2023-02-04T09:52:37.174Z,98563.94
2023-02-04T09:57:31.921Z,98555.94
2023-02-04T10:02:27.854Z,98563.09
2023-02-04T10:07:25.506Z,98561.97
2023-02-04T10:12:19.166Z,98563.47
2023-02-04T10:17:19.299Z,98567.41
2023-02-04T10:22:19.337Z,98568.44
2023-02-04T10:27:16.206Z,98575.50
2023-02-04T10:32:30.530Z,98559.59
2023-02-04T10:37:24.442Z,98559.94
2023-02-04T10:42:24.540Z,98570.06
2023-02-04T10:47:20.635Z,98561.50
2023-02-04T10:52:38.249Z,98569.63
2023-02-04T10:57:36.138Z,98565.81
2023-02-04T11:02:43.372Z,98558.75
2023-02-04T11:07:43.402Z,98554.84
2023-02-04T11:12:50.507Z,98552.25
2023-02-04T11:17:46.071Z,98554.53
2023-02-04T11:22:46.451Z,98562.75
2023-02-04T11:27:41.587Z,98585.84
2023-02-04T11:32:38.416Z,98594.72
2023-02-04T11:37:46.427Z,98586.53
2023-02-04T11:42:43.479Z,98587.75
2023-02-04T11:47:38.203Z,98587.34
2023-02-04T11:52:31.944Z,98613.09
2023-02-04T11:57:27.866Z,98610.63
2023-02-04T12:02:24.362Z,98613.91
2023-02-04T12:07:31.812Z,98621.22
2023-02-04T12:12:42.188Z,98615.97
2023-02-04T12:17:35.716Z,98613.94
2023-02-04T12:22:29.122Z,98614.47
2023-02-04T12:27:26.697Z,98614.56
2023-02-04T12:32:26.789Z,98620.34
2023-02-04T12:37:23.244Z,98613.66
2023-02-04T12:42:16.647Z,98611.81
2023-02-04T12:47:11.373Z,98616.66
2023-02-04T12:52:54.288Z,98627.66
2023-02-04T12:57:47.664Z,98636.03
2023-02-04T13:02:42.723Z,98639.63
2023-02-04T13:07:36.132Z,98640.47
2023-02-04T13:12:29.501Z,98643.16
2023-02-04T13:17:22.983Z,98644.88
2023-02-04T13:22:20.114Z,98660.63
2023-02-04T13:27:13.638Z,98663.91
2023-02-04T13:32:07.209Z,98675.88
2023-02-04T13:37:00.610Z,98681.34
2023-02-04T13:41:55.421Z,98687.53
2023-02-04T13:46:48.974Z,98681.09
2023-02-04T13:51:42.734Z,98693.78
2023-02-04T13:56:38.810Z,98696.22
2023-02-04T14:01:37.833Z,98701.38
2023-02-04T14:06:33.994Z,98704.25
2023-02-04T14:11:30.315Z,98707.19
2023-02-04T14:16:24.273Z,98707.59
2023-02-04T14:21:20.576Z,98710.41
2023-02-04T14:26:14.099Z,98711.31
2023-02-04T14:31:07.765Z,98716.34
2023-02-04T14:36:01.181Z,98723.47
2023-02-04T14:40:56.034Z,98717.25
2023-02-04T14:45:49.499Z,98708.66
2023-02-04T14:50:44.540Z,98711.44
2023-02-04T14:55:38.411Z,98729.00
2023-02-04T15:00:33.569Z,98725.50
2023-02-04T15:05:31.974Z,98731.84
2023-02-04T15:10:25.623Z,98731.72
2023-02-04T15:26:14.355Z,98736.22
2023-02-04T15:31:08.060Z,98737.13
2023-02-04T15:36:07.119Z,98739.13
2023-02-04T15:41:03.370Z,98736.63
2023-02-04T15:45:59.789Z,98739.59
2023-02-04T15:50:53.309Z,98745.25
2023-02-04T15:55:49.767Z,98747.66
2023-02-04T16:00:44.768Z,98751.53
2023-02-04T16:05:38.599Z,98758.06
2023-02-04T16:10:35.285Z,98752.06
2023-02-04T16:15:29.487Z,98753.06
2023-02-04T16:20:41.312Z,98758.19
2023-02-04T16:25:35.170Z,98765.19
2023-02-04T16:30:28.885Z,98774.03
2023-02-04T16:35:22.612Z,98776.72
2023-02-04T16:40:20.140Z,98777.69
2023-02-04T16:45:13.793Z,98787.41
2023-02-04T16:50:08.673Z,98783.88
2023-02-04T16:55:02.142Z,98785.66
2023-02-04T16:59:56.920Z,98789.09
2023-02-04T17:04:50.406Z,98800.53
2023-02-04T17:09:44.013Z,98802.78
2023-02-04T17:14:38.920Z,98805.44
2023-02-04T17:19:33.652Z,98802.91
2023-02-04T17:24:27.146Z,98804.94
2023-02-04T17:29:21.991Z,98795.53
2023-02-04T17:34:15.375Z,98795.59
2023-02-04T17:39:10.316Z,98793.13
2023-02-04T17:44:04.467Z,98791.53
2023-02-04T17:49:01.313Z,98796.81
2023-02-04T17:53:54.730Z,98796.03
2023-02-04T17:58:49.605Z,98801.97
2023-02-04T18:03:43.935Z,98814.69
2023-02-04T18:08:41.769Z,98819.28
2023-02-04T18:13:35.977Z,98826.38
2023-02-04T18:18:41.557Z,98820.50
2023-02-04T18:23:34.949Z,98810.09
2023-02-04T18:28:42.325Z,98814.66
2023-02-04T18:33:41.801Z,98819.03
2023-02-04T18:38:44.594Z,98817.38
2023-02-04T18:43:42.372Z,98820.03
2023-02-04T18:49:18.718Z,98832.22
2023-02-04T18:54:54.442Z,98830.44
2023-02-04T18:59:48.767Z,98827.91
2023-02-04T19:04:44.444Z,98827.09
2023-02-04T19:09:38.562Z,98834.38
2023-02-04T19:37:24.071Z,98833.56
2023-02-04T19:43:42.572Z,98819.38
2023-02-04T20:01:18.596Z,98805.06
2023-02-04T20:06:32.646Z,98805.69
2023-02-04T20:12:11.337Z,98807.03
2023-02-04T20:18:23.207Z,98806.88
2023-02-04T20:24:44.902Z,98811.75
2023-02-04T20:29:51.886Z,98832.63
2023-02-04T20:34:48.981Z,98837.31
2023-02-04T20:39:56.891Z,98839.94
2023-02-04T20:45:14.699Z,98844.34
2023-02-04T20:50:43.631Z,98855.69
2023-02-04T20:55:37.499Z,98866.38
2023-02-04T21:00:45.193Z,98856.84
2023-02-04T21:05:58.002Z,98855.09
2023-02-04T21:16:24.072Z,98861.69
2023-02-04T21:21:17.759Z,98862.63
2023-02-04T21:26:11.206Z,98865.22
2023-02-04T21:31:06.374Z,98868.59
2023-02-04T21:36:00.002Z,98877.38
2023-02-04T21:41:21.868Z,98879.44
2023-02-04T21:46:18.247Z,98883.81
2023-02-04T21:51:13.083Z,98882.13
2023-02-04T21:56:08.581Z,98886.28
2023-02-04T22:01:03.499Z,98899.19
2023-02-04T22:05:58.251Z,98898.47
2023-02-04T22:10:53.717Z,98898.59
2023-02-04T22:15:48.016Z,98894.81
2023-02-04T22:20:41.398Z,98898.44
2023-02-04T22:25:36.493Z,98907.47
2023-02-04T22:30:29.994Z,98909.31
2023-02-04T22:35:27.880Z,98906.38
2023-02-04T22:40:21.433Z,98907.16
2023-02-04T22:45:16.355Z,98913.56
2023-02-04T22:50:12.527Z,98909.47
2023-02-04T22:55:06.886Z,98919.22
2023-02-04T23:00:00.333Z,98920.34
2023-02-04T23:04:55.041Z,98911.50
2023-02-04T23:09:48.517Z,98911.38
2023-02-04T23:14:44.538Z,98913.47
2023-02-04T23:19:38.489Z,98923.19
2023-02-04T23:24:33.558Z,98914.53
2023-02-04T23:29:28.152Z,98927.81
2023-02-04T23:34:21.706Z,98919.97
2023-02-04T23:39:17.076Z,98918.94
2023-02-04T23:44:09.902Z,98920.94
2023-02-04T23:49:05.531Z,98924.44
2023-02-04T23:53:59.104Z,98921.69
2023-02-04T23:58:54.368Z,98923.50
